createdAt,value
2022-12-24T00:00:42.053Z,2.30
2022-12-24T00:03:27.856Z,2.30
2022-12-24T00:06:23.815Z,2.30
2022-12-24T00:09:09.901Z,2.30
2022-12-24T00:11:55.799Z,2.20
2022-12-24T00:14:41.398Z,2.20
2022-12-24T00:17:26.927Z,2.20
2022-12-24T00:20:12.733Z,2.20
2022-12-24T00:22:58.448Z,2.20
2022-12-24T00:25:44.489Z,2.20
2022-12-24T00:28:30.320Z,2.20
2022-12-24T00:31:18.447Z,2.20
2022-12-24T00:34:04.154Z,2.30
2022-12-24T00:36:49.769Z,2.30
2022-12-24T00:39:35.145Z,2.30
2022-12-24T00:42:21.351Z,2.30
2022-12-24T00:45:07.776Z,2.30
2022-12-24T00:47:53.798Z,2.30
2022-12-24T00:50:39.710Z,2.30
2022-12-24T00:53:25.463Z,2.30
2022-12-24T00:56:11.187Z,2.40
2022-12-24T00:58:57.228Z,2.30
2022-12-24T01:01:42.748Z,2.40
2022-12-24T01:04:28.766Z,2.40
2022-12-24T01:07:14.124Z,2.40
2022-12-24T01:09:59.588Z,2.40
2022-12-24T01:12:46.111Z,2.40
2022-12-24T01:15:31.720Z,2.50
2022-12-24T01:18:17.369Z,2.50
2022-12-24T01:21:03.909Z,2.50
2022-12-24T01:23:49.487Z,2.50
2022-12-24T01:26:35.030Z,2.50
2022-12-24T01:29:20.672Z,2.50
2022-12-24T01:32:06.289Z,2.60
2022-12-24T01:34:51.891Z,2.60
2022-12-24T01:37:37.593Z,2.60
2022-12-24T01:40:25.470Z,2.60
2022-12-24T01:43:22.405Z,2.60
2022-12-24T01:46:38.767Z,2.60
2022-12-24T01:49:24.483Z,2.60
2022-12-24T01:52:19.443Z,2.60
2022-12-24T01:55:17.265Z,2.60
2022-12-24T01:58:04.270Z,2.60
2022-12-24T02:00:49.691Z,2.60
2022-12-24T02:03:35.647Z,2.70
2022-12-24T02:06:22.119Z,2.70
2022-12-24T02:09:07.835Z,2.60
2022-12-24T02:11:53.442Z,2.60
2022-12-24T02:14:39.165Z,2.70
2022-12-24T02:17:54.550Z,2.70
2022-12-24T02:21:23.517Z,2.70
2022-12-24T02:24:39.585Z,2.70
2022-12-24T02:27:45.535Z,2.70
2022-12-24T02:31:12.268Z,2.70
2022-12-24T02:34:18.520Z,2.70
2022-12-24T02:37:21.800Z,2.70
2022-12-24T02:40:27.773Z,2.70
2022-12-24T02:43:28.461Z,2.70
2022-12-24T02:46:22.909Z,2.70
2022-12-24T02:49:08.717Z,2.70
2022-12-24T02:51:54.090Z,2.70
2022-12-24T02:54:39.722Z,2.70
2022-12-24T02:57:51.024Z,2.70
2022-12-24T03:01:41.395Z,2.70
2022-12-24T03:05:17.557Z,2.70
2022-12-24T03:08:42.553Z,2.70
2022-12-24T03:11:28.336Z,2.70
2022-12-24T03:14:15.624Z,2.70
2022-12-24T03:17:03.686Z,2.70
2022-12-24T03:19:50.310Z,2.70
2022-12-24T03:22:36.713Z,2.70
2022-12-24T03:25:25.878Z,2.70
2022-12-24T03:28:16.569Z,2.70
2022-12-24T03:31:05.403Z,2.70
2022-12-24T03:33:51.598Z,2.70
2022-12-24T03:36:37.485Z,2.70
2022-12-24T03:39:23.825Z,2.80
2022-12-24T03:42:09.148Z,2.80
2022-12-24T03:44:54.748Z,2.80
2022-12-24T03:47:40.314Z,2.80
2022-12-24T03:50:25.689Z,2.80
2022-12-24T03:53:11.759Z,2.80
2022-12-24T03:55:57.110Z,2.80
2022-12-24T03:58:42.531Z,2.80
2022-12-24T04:01:28.074Z,2.80
2022-12-24T04:04:13.963Z,2.80
2022-12-24T04:07:00.705Z,2.80
2022-12-24T04:09:45.935Z,2.70
2022-12-24T04:12:31.488Z,2.80
2022-12-24T04:15:16.985Z,2.80
2022-12-24T04:18:02.151Z,2.90
2022-12-24T04:20:47.708Z,2.90
2022-12-24T04:23:37.205Z,2.80
2022-12-24T04:26:22.474Z,2.80
2022-12-24T04:29:08.126Z,2.80
2022-12-24T04:31:53.749Z,2.80
2022-12-24T04:34:39.779Z,2.70
2022-12-24T04:37:25.345Z,2.70
2022-12-24T04:40:11.299Z,2.70
2022-12-24T04:42:56.779Z,2.70
2022-12-24T04:45:42.429Z,2.60
2022-12-24T04:48:28.045Z,2.70
2022-12-24T04:51:14.379Z,2.60
2022-12-24T04:53:59.967Z,2.70
2022-12-24T04:56:45.416Z,2.70
2022-12-24T04:59:31.005Z,2.70
2022-12-24T05:02:16.994Z,2.70
2022-12-24T05:05:02.821Z,2.70
2022-12-24T05:07:48.268Z,2.70
2022-12-24T05:10:33.851Z,2.70
2022-12-24T05:13:19.557Z,2.70
2022-12-24T05:16:05.745Z,2.80
2022-12-24T05:18:52.659Z,2.80
2022-12-24T05:21:38.139Z,2.80
2022-12-24T05:24:23.664Z,2.80
2022-12-24T05:27:09.217Z,2.80
2022-12-24T05:29:55.036Z,2.80
2022-12-24T05:32:40.841Z,2.80
2022-12-24T05:35:26.226Z,2.80
2022-12-24T05:38:11.665Z,2.80
2022-12-24T05:40:57.230Z,2.80
2022-12-24T05:43:42.673Z,2.80
2022-12-24T05:46:28.548Z,2.80
2022-12-24T05:49:14.393Z,2.80
2022-12-24T05:51:59.898Z,2.90
2022-12-24T05:54:45.621Z,2.90
2022-12-24T05:57:31.116Z,2.90
2022-12-24T06:00:17.411Z,2.90
2022-12-24T06:03:03.131Z,2.90
2022-12-24T06:05:48.707Z,2.90
2022-12-24T06:08:36.565Z,2.90
2022-12-24T06:11:27.147Z,2.90
2022-12-24T06:14:12.818Z,2.90
2022-12-24T06:16:58.442Z,2.90
2022-12-24T06:19:43.852Z,2.90
2022-12-24T06:22:29.442Z,2.90
2022-12-24T06:25:15.018Z,2.90
2022-12-24T06:28:00.498Z,2.90
2022-12-24T06:30:50.579Z,2.90
2022-12-24T06:33:36.707Z,2.90
2022-12-24T06:36:25.209Z,2.90
2022-12-24T06:39:10.737Z,2.90
2022-12-24T06:41:56.330Z,2.90
2022-12-24T06:44:41.794Z,2.90
2022-12-24T06:47:27.455Z,2.90
2022-12-24T06:50:13.408Z,3.00
2022-12-24T06:52:58.724Z,3.00
2022-12-24T06:55:45.456Z,3.00
2022-12-24T06:58:31.148Z,3.00
2022-12-24T07:01:19.345Z,3.00
2022-12-24T07:04:05.173Z,3.00
2022-12-24T07:06:50.870Z,3.00
2022-12-24T07:09:36.929Z,3.00
2022-12-24T07:12:22.472Z,3.00
2022-12-24T07:15:10.269Z,2.90
2022-12-24T07:17:56.033Z,2.90
2022-12-24T07:20:43.085Z,2.90
2022-12-24T07:23:28.647Z,3.00
2022-12-24T07:26:14.299Z,3.00
2022-12-24T07:29:00.336Z,3.00
2022-12-24T07:31:45.904Z,3.00
2022-12-24T07:34:31.614Z,3.10
2022-12-24T07:37:17.247Z,3.10
2022-12-24T07:40:03.725Z,3.10
2022-12-24T07:42:49.341Z,3.20
2022-12-24T07:45:34.853Z,3.20
2022-12-24T07:48:20.434Z,3.30
2022-12-24T07:51:06.179Z,3.30
2022-12-24T07:53:51.816Z,3.30
2022-12-24T07:56:37.289Z,3.40
2022-12-24T07:59:22.918Z,3.50
2022-12-24T08:02:18.204Z,3.60
2022-12-24T08:05:05.374Z,3.60
2022-12-24T08:07:50.868Z,3.70
2022-12-24T08:10:41.136Z,3.80
2022-12-24T08:13:26.628Z,3.80
2022-12-24T08:16:12.488Z,3.80
2022-12-24T08:18:58.221Z,3.90
2022-12-24T08:21:43.649Z,3.90
2022-12-24T08:24:29.312Z,3.90
2022-12-24T08:27:14.709Z,4.00
2022-12-24T08:30:00.300Z,4.00
2022-12-24T08:32:45.511Z,4.00
2022-12-24T08:35:31.263Z,4.10
2022-12-24T08:38:17.047Z,4.20
2022-12-24T08:41:02.849Z,4.20
2022-12-24T08:43:48.328Z,4.20
2022-12-24T08:46:33.697Z,4.20
2022-12-24T08:49:19.569Z,4.20
2022-12-24T08:52:05.727Z,4.30
2022-12-24T08:54:51.478Z,4.30
2022-12-24T08:57:38.439Z,4.30
2022-12-24T09:00:24.165Z,4.30
2022-12-24T09:03:15.127Z,4.40
2022-12-24T09:06:05.545Z,4.40
2022-12-24T09:08:51.242Z,4.40
2022-12-24T09:11:36.866Z,4.40
2022-12-24T09:14:22.296Z,4.40
2022-12-24T09:17:08.021Z,4.40
2022-12-24T09:19:53.408Z,4.40
2022-12-24T09:22:40.566Z,4.40
2022-12-24T09:25:26.460Z,4.40
2022-12-24T09:28:11.960Z,4.40
2022-12-24T09:31:05.861Z,4.40
2022-12-24T09:33:52.591Z,4.40
2022-12-24T09:36:38.432Z,4.50
2022-12-24T09:39:23.905Z,4.50
2022-12-24T09:42:15.113Z,4.60
2022-12-24T09:45:24.597Z,4.60
2022-12-24T09:48:25.263Z,4.70
2022-12-24T09:51:23.514Z,4.70
2022-12-24T09:54:36.687Z,4.70
2022-12-24T09:57:34.387Z,4.70
2022-12-24T10:00:36.997Z,4.70
2022-12-24T10:03:23.191Z,4.70
2022-12-24T10:06:25.162Z,4.70
2022-12-24T10:09:30.234Z,4.80
2022-12-24T10:13:06.012Z,4.80
2022-12-24T10:16:07.541Z,4.80
2022-12-24T10:19:19.233Z,4.80
2022-12-24T10:22:37.223Z,4.80
2022-12-24T10:25:56.300Z,4.80
2022-12-24T10:29:00.711Z,4.80
2022-12-24T10:32:09.810Z,4.80
2022-12-24T10:35:08.624Z,4.70
2022-12-24T10:37:54.853Z,4.70
2022-12-24T10:40:51.532Z,4.70
2022-12-24T10:43:39.831Z,4.80
2022-12-24T10:46:39.502Z,4.80
2022-12-24T10:49:49.155Z,4.90
2022-12-24T10:52:40.105Z,4.90
2022-12-24T10:55:25.663Z,4.90
2022-12-24T10:58:19.474Z,4.90
2022-12-24T11:01:05.798Z,4.90
2022-12-24T11:04:02.279Z,4.90
2022-12-24T11:07:00.194Z,4.90
2022-12-24T11:10:07.293Z,4.90
2022-12-24T11:13:27.331Z,5.00
2022-12-24T11:16:07.778Z,5.10
2022-12-24T11:19:06.938Z,5.10
2022-12-24T11:22:06.365Z,5.10
2022-12-24T11:25:32.893Z,5.10
2022-12-24T11:28:33.072Z,5.20
2022-12-24T11:31:23.050Z,5.20
2022-12-24T11:34:32.635Z,5.30
2022-12-24T11:37:23.659Z,5.40
2022-12-24T11:40:24.183Z,5.40
2022-12-24T11:43:21.166Z,5.50
2022-12-24T11:46:44.201Z,5.50
2022-12-24T11:49:32.362Z,5.50
2022-12-24T11:52:24.161Z,5.50
2022-12-24T11:55:26.970Z,5.50
2022-12-24T11:58:52.585Z,5.50
2022-12-24T12:02:19.426Z,5.40
2022-12-24T12:05:24.053Z,5.30
2022-12-24T12:08:20.478Z,5.30
2022-12-24T12:11:13.750Z,5.20
2022-12-24T12:14:01.663Z,5.10
2022-12-24T12:18:00.541Z,5.20
2022-12-24T12:20:54.475Z,5.20
2022-12-24T12:24:00.550Z,5.20
2022-12-24T12:26:47.865Z,5.20
2022-12-24T12:29:44.968Z,5.20
2022-12-24T12:33:27.424Z,5.20
2022-12-24T12:36:15.972Z,5.20
2022-12-24T12:39:01.292Z,5.10
2022-12-24T12:41:52.711Z,5.20
2022-12-24T12:49:24.843Z,5.20
2022-12-24T12:53:01.477Z,5.30
2022-12-24T12:56:28.133Z,5.20
2022-12-24T12:59:53.127Z,5.30
2022-12-24T13:03:45.212Z,5.20
2022-12-24T13:06:54.803Z,5.10
2022-12-24T13:10:14.813Z,5.10
2022-12-24T13:13:31.363Z,5.20
2022-12-24T13:16:43.970Z,5.20
2022-12-24T13:20:04.945Z,5.20
2022-12-24T13:23:11.808Z,5.10
2022-12-24T13:25:58.911Z,5.10
2022-12-24T13:28:45.230Z,5.00
2022-12-24T13:31:31.249Z,4.90
2022-12-24T13:34:37.055Z,4.80
2022-12-24T13:37:34.610Z,4.70
2022-12-24T13:40:27.956Z,4.80
2022-12-24T13:43:13.564Z,4.80
2022-12-24T13:45:59.140Z,4.80
2022-12-24T13:48:46.057Z,4.70
2022-12-24T13:51:33.831Z,4.60
2022-12-24T13:54:25.358Z,4.50
2022-12-24T13:57:39.393Z,4.50
2022-12-24T14:00:41.651Z,4.40
2022-12-24T14:03:44.301Z,4.40
2022-12-24T14:06:40.929Z,4.50
2022-12-24T14:09:27.843Z,4.50
2022-12-24T14:12:33.195Z,4.40
2022-12-24T14:15:49.769Z,4.30
2022-12-24T14:18:42.715Z,4.30
2022-12-24T14:21:58.081Z,4.30
2022-12-24T14:25:14.234Z,4.30
2022-12-24T14:28:06.666Z,4.40
2022-12-24T14:31:05.075Z,4.40
2022-12-24T14:33:50.725Z,4.40
2022-12-24T14:36:36.661Z,4.30
2022-12-24T14:39:42.363Z,4.30
2022-12-24T14:42:34.121Z,4.30
2022-12-24T14:45:53.567Z,4.30
2022-12-24T14:49:31.508Z,4.30
2022-12-24T14:53:07.260Z,4.20
2022-12-24T14:55:54.747Z,4.20
2022-12-24T14:58:40.702Z,4.10
2022-12-24T15:01:32.845Z,4.10
2022-12-24T15:04:18.948Z,4.10
2022-12-24T15:07:05.237Z,4.10
2022-12-24T15:09:50.744Z,4.10
2022-12-24T15:12:40.651Z,4.10
2022-12-24T15:15:26.557Z,4.10
2022-12-24T15:18:20.481Z,4.20
2022-12-24T15:21:17.338Z,4.20
2022-12-24T15:24:04.186Z,4.10
2022-12-24T15:26:49.999Z,4.20
2022-12-24T15:29:45.217Z,4.10
2022-12-24T15:32:30.999Z,4.10
2022-12-24T15:35:53.793Z,4.00
2022-12-24T15:38:54.901Z,4.00
2022-12-24T15:41:45.192Z,3.90
2022-12-24T15:44:37.887Z,4.00
2022-12-24T15:47:33.900Z,4.00
2022-12-24T15:50:28.297Z,4.10
2022-12-24T15:53:21.985Z,4.00
2022-12-24T15:56:31.182Z,3.90
2022-12-24T15:59:16.535Z,4.00
2022-12-24T16:02:44.438Z,4.00
2022-12-24T16:05:34.724Z,4.00
2022-12-24T16:08:25.983Z,3.90
2022-12-24T16:11:26.874Z,3.90
2022-12-24T16:14:19.020Z,3.80
2022-12-24T16:17:29.419Z,3.80
2022-12-24T16:20:22.251Z,3.80
2022-12-24T16:23:22.959Z,3.80
2022-12-24T16:26:08.851Z,3.90
2022-12-24T16:28:55.849Z,3.90
2022-12-24T16:31:53.873Z,3.90
2022-12-24T16:34:39.512Z,3.90
2022-12-24T16:37:25.338Z,3.80
2022-12-24T16:40:19.333Z,3.80
2022-12-24T16:43:09.718Z,3.80
2022-12-24T16:46:03.871Z,3.80
2022-12-24T16:48:49.572Z,3.80
2022-12-24T16:51:35.343Z,3.80
2022-12-24T16:54:23.783Z,3.80
2022-12-24T16:57:10.653Z,3.80
2022-12-24T16:59:56.166Z,3.90
2022-12-24T17:02:42.326Z,3.90
2022-12-24T17:05:28.297Z,3.90
2022-12-24T17:08:14.449Z,3.90
2022-12-24T17:10:59.900Z,3.90
2022-12-24T17:13:45.344Z,3.90
2022-12-24T17:16:31.364Z,3.80
2022-12-24T17:19:17.192Z,3.80
2022-12-24T17:22:02.725Z,3.80
2022-12-24T17:24:48.338Z,3.70
2022-12-24T17:27:34.128Z,3.70
2022-12-24T17:30:19.830Z,3.70
2022-12-24T17:33:09.349Z,3.70
2022-12-24T17:35:58.088Z,3.80
2022-12-24T17:38:43.656Z,3.80
2022-12-24T17:41:29.311Z,3.70
2022-12-24T17:44:15.355Z,3.70
2022-12-24T17:47:01.324Z,3.70
2022-12-24T17:49:47.144Z,3.70
2022-12-24T17:52:32.521Z,3.70
2022-12-24T17:55:18.050Z,3.70
2022-12-24T17:58:03.462Z,3.80
2022-12-24T18:00:49.084Z,3.70
2022-12-24T18:03:34.519Z,3.80
2022-12-24T18:06:20.603Z,3.80
2022-12-24T18:09:06.467Z,3.80
2022-12-24T18:11:52.180Z,3.70
2022-12-24T18:14:37.758Z,3.70
2022-12-24T18:17:23.192Z,3.70
2022-12-24T18:20:09.264Z,3.80
2022-12-24T18:22:55.742Z,3.70
2022-12-24T18:25:41.240Z,3.60
2022-12-24T18:28:26.695Z,3.60
2022-12-24T18:31:18.348Z,3.70
2022-12-24T18:34:08.757Z,3.70
2022-12-24T18:36:55.639Z,3.70
2022-12-24T18:39:43.565Z,3.70
2022-12-24T18:42:29.217Z,3.70
2022-12-24T18:45:14.733Z,3.70
2022-12-24T18:48:00.272Z,3.70
2022-12-24T18:50:58.669Z,3.70
2022-12-24T18:53:44.619Z,3.70
2022-12-24T18:56:31.184Z,3.70
2022-12-24T18:59:16.733Z,3.70
2022-12-24T19:02:02.725Z,3.70
2022-12-24T19:04:48.100Z,3.70
2022-12-24T19:07:33.632Z,3.70
2022-12-24T19:10:19.754Z,3.70
2022-12-24T19:13:05.083Z,3.70
2022-12-24T19:15:50.582Z,3.70
2022-12-24T19:18:36.214Z,3.70
2022-12-24T19:21:21.941Z,3.70
2022-12-24T19:24:08.183Z,3.70
2022-12-24T19:26:53.526Z,3.80
2022-12-24T19:29:39.132Z,3.70
2022-12-24T19:32:24.652Z,3.70
2022-12-24T19:35:10.211Z,3.70
2022-12-24T19:37:56.416Z,3.70
2022-12-24T19:40:41.916Z,3.70
2022-12-24T19:43:28.993Z,3.70
2022-12-24T19:46:20.595Z,3.70
2022-12-24T19:49:11.344Z,3.60
2022-12-24T19:51:57.142Z,3.60
2022-12-24T19:54:43.149Z,3.50
2022-12-24T19:57:28.648Z,3.60
2022-12-24T20:00:14.618Z,3.60
2022-12-24T20:03:00.321Z,3.60
2022-12-24T20:05:46.305Z,3.60
2022-12-24T20:08:31.934Z,3.60
2022-12-24T20:11:20.775Z,3.60
2022-12-24T20:14:07.024Z,3.60
2022-12-24T20:16:52.575Z,3.60
2022-12-24T20:19:38.357Z,3.50
2022-12-24T20:22:24.349Z,3.50
2022-12-24T20:25:10.405Z,3.50
2022-12-24T20:27:56.222Z,3.50
2022-12-24T20:30:41.670Z,3.50
2022-12-24T20:33:27.508Z,3.50
2022-12-24T20:36:20.541Z,3.50
2022-12-24T20:39:07.174Z,3.50
2022-12-24T20:41:52.899Z,3.50
2022-12-24T20:44:39.098Z,3.50
2022-12-24T20:47:25.010Z,3.50
2022-12-24T20:50:11.035Z,3.50
2022-12-24T20:52:56.677Z,3.50
2022-12-24T20:55:42.261Z,3.50
2022-12-24T20:58:27.818Z,3.50
2022-12-24T21:01:21.972Z,3.50
2022-12-24T21:04:07.462Z,3.50
2022-12-24T21:06:52.923Z,3.50
2022-12-24T21:09:38.430Z,3.50
2022-12-24T21:12:24.522Z,3.50
2022-12-24T21:15:09.952Z,3.50
2022-12-24T21:17:57.116Z,3.50
2022-12-24T21:20:42.972Z,3.40
2022-12-24T21:23:28.647Z,3.40
2022-12-24T21:26:14.063Z,3.40
2022-12-24T21:29:00.615Z,3.40
2022-12-24T21:31:46.088Z,3.40
2022-12-24T21:34:31.341Z,3.40
2022-12-24T21:37:17.321Z,3.40
2022-12-24T21:40:03.529Z,3.40
2022-12-24T21:42:49.141Z,3.40
2022-12-24T21:45:34.915Z,3.50
2022-12-24T21:48:21.381Z,3.40
2022-12-24T21:51:08.428Z,3.40
2022-12-24T21:53:54.938Z,3.40
2022-12-24T21:56:41.762Z,3.40
2022-12-24T21:59:30.227Z,3.40
2022-12-24T22:02:16.902Z,3.50
2022-12-24T22:05:02.913Z,3.40
2022-12-24T22:07:48.593Z,3.40
2022-12-24T22:10:34.217Z,3.40
2022-12-24T22:13:20.255Z,3.40
2022-12-24T22:16:06.149Z,3.40
2022-12-24T22:18:51.811Z,3.40
2022-12-24T22:21:39.029Z,3.30
2022-12-24T22:24:28.118Z,3.30
2022-12-24T22:27:13.840Z,3.30
2022-12-24T22:29:59.767Z,3.30
2022-12-24T22:32:45.264Z,3.30
2022-12-24T22:35:30.457Z,3.30
2022-12-24T22:38:15.919Z,3.30
2022-12-24T22:41:08.153Z,3.40
2022-12-24T22:43:53.978Z,3.30
2022-12-24T22:47:39.347Z,3.30
2022-12-24T22:51:36.899Z,3.40
2022-12-24T23:00:16.191Z,3.40
2022-12-24T23:09:25.858Z,3.40
2022-12-24T23:15:30.683Z,3.40
2022-12-24T23:18:27.843Z,3.40
2022-12-24T23:21:31.343Z,3.40
2022-12-24T23:25:51.141Z,3.40
2022-12-24T23:29:30.791Z,3.40
2022-12-24T23:33:58.829Z,3.40
2022-12-24T23:37:56.001Z,3.40
